sensor_id;sensor_type;location;lat;lon;timestamp;P1;durP1;ratioP1;P2;durP2;ratioP2
177;SDS011;77;48.792;9.032;2023-10-09T00:02:00;37.60;;;6.40;;
177;SDS011;77;48.792;9.032;2023-10-09T00:04:25;31.63;;;6.50;;
177;SDS011;77;48.792;9.032;2023-10-09T00:06:50;26.37;;;5.80;;
177;SDS011;77;48.792;9.032;2023-10-09T00:09:15;33.90;;;6.57;;
177;SDS011;77;48.792;9.032;2023-10-09T00:11:40;32.40;;;6.40;;
177;SDS011;77;48.792;9.032;2023-10-09T00:14:06;33.13;;;6.73;;
177;SDS011;77;48.792;9.032;2023-10-09T00:16:31;30.97;;;6.23;;
177;SDS011;77;48.792;9.032;2023-10-09T00:18:57;28.33;;;6.97;;
177;SDS011;77;48.792;9.032;2023-10-09T00:21:22;24.17;;;6.17;;
177;SDS011;77;48.792;9.032;2023-10-09T00:23:48;23.87;;;6.07;;
177;SDS011;77;48.792;9.032;2023-10-09T00:26:13;27.37;;;6.43;;
177;SDS011;77;48.792;9.032;2023-10-09T00:28:38;32.03;;;6.13;;
177;SDS011;77;48.792;9.032;2023-10-09T00:31:03;30.00;;;6.37;;
177;SDS011;77;48.792;9.032;2023-10-09T00:33:29;27.93;;;6.23;;
177;SDS011;77;48.792;9.032;2023-10-09T00:35:55;25.50;;;6.00;;
177;SDS011;77;48.792;9.032;2023-10-09T00:38:20;25.90;;;6.47;;
177;SDS011;77;48.792;9.032;2023-10-09T00:40:46;55.80;;;7.23;;
177;SDS011;77;48.792;9.032;2023-10-09T00:43:11;28.87;;;6.33;;
177;SDS011;77;48.792;9.032;2023-10-09T00:45:36;31.10;;;6.40;;
177;SDS011;77;48.792;9.032;2023-10-09T00:48:01;23.37;;;6.10;;
177;SDS011;77;48.792;9.032;2023-10-09T00:50:26;29.20;;;6.20;;
177;SDS011;77;48.792;9.032;2023-10-09T00:52:54;27.50;;;6.03;;
177;SDS011;77;48.792;9.032;2023-10-09T00:55:20;28.83;;;6.63;;
177;SDS011;77;48.792;9.032;2023-10-09T00:57:45;33.10;;;6.00;;
177;SDS011;77;48.792;9.032;2023-10-09T01:00:11;29.83;;;6.50;;
177;SDS011;77;48.792;9.032;2023-10-09T01:02:36;31.37;;;7.13;;
177;SDS011;77;48.792;9.032;2023-10-09T01:05:02;29.77;;;6.70;;
177;SDS011;77;48.792;9.032;2023-10-09T01:07:27;37.87;;;6.33;;
177;SDS011;77;48.792;9.032;2023-10-09T01:09:53;32.37;;;6.67;;
177;SDS011;77;48.792;9.032;2023-10-09T01:12:18;35.27;;;6.83;;
177;SDS011;77;48.792;9.032;2023-10-09T01:14:44;28.77;;;6.57;;
177;SDS011;77;48.792;9.032;2023-10-09T01:17:09;31.93;;;6.70;;
177;SDS011;77;48.792;9.032;2023-10-09T01:19:34;37.37;;;7.30;;
177;SDS011;77;48.792;9.032;2023-10-09T01:21:59;25.80;;;5.90;;
177;SDS011;77;48.792;9.032;2023-10-09T01:24:26;28.63;;;6.30;;
177;SDS011;77;48.792;9.032;2023-10-09T01:26:51;33.57;;;7.20;;
177;SDS011;77;48.792;9.032;2023-10-09T01:29:16;29.43;;;5.67;;
177;SDS011;77;48.792;9.032;2023-10-09T01:31:42;32.40;;;6.27;;
177;SDS011;77;48.792;9.032;2023-10-09T01:34:07;30.10;;;6.57;;
177;SDS011;77;48.792;9.032;2023-10-09T01:36:32;28.43;;;6.50;;
177;SDS011;77;48.792;9.032;2023-10-09T01:38:58;35.33;;;6.80;;
177;SDS011;77;48.792;9.032;2023-10-09T01:41:25;27.43;;;6.10;;
177;SDS011;77;48.792;9.032;2023-10-09T01:43:50;33.20;;;6.53;;
177;SDS011;77;48.792;9.032;2023-10-09T01:46:15;28.97;;;6.00;;
177;SDS011;77;48.792;9.032;2023-10-09T01:48:40;33.23;;;6.20;;
177;SDS011;77;48.792;9.032;2023-10-09T01:51:06;27.30;;;6.67;;
177;SDS011;77;48.792;9.032;2023-10-09T01:53:31;27.23;;;5.43;;
177;SDS011;77;48.792;9.032;2023-10-09T01:55:56;31.73;;;6.67;;
177;SDS011;77;48.792;9.032;2023-10-09T01:58:22;36.87;;;6.57;;
177;SDS011;77;48.792;9.032;2023-10-09T02:00:48;25.00;;;5.67;;
177;SDS011;77;48.792;9.032;2023-10-09T02:03:13;32.27;;;6.77;;
177;SDS011;77;48.792;9.032;2023-10-09T02:05:38;27.27;;;6.40;;
177;SDS011;77;48.792;9.032;2023-10-09T02:08:03;31.57;;;6.23;;
177;SDS011;77;48.792;9.032;2023-10-09T02:10:28;25.03;;;5.60;;
177;SDS011;77;48.792;9.032;2023-10-09T02:12:55;29.63;;;6.37;;
177;SDS011;77;48.792;9.032;2023-10-09T02:15:22;26.73;;;6.43;;
177;SDS011;77;48.792;9.032;2023-10-09T02:17:47;27.50;;;6.30;;
177;SDS011;77;48.792;9.032;2023-10-09T02:20:12;29.13;;;5.70;;
177;SDS011;77;48.792;9.032;2023-10-09T02:22:37;39.07;;;7.07;;
177;SDS011;77;48.792;9.032;2023-10-09T02:25:02;32.20;;;6.60;;
177;SDS011;77;48.792;9.032;2023-10-09T02:27:28;21.00;;;6.20;;
177;SDS011;77;48.792;9.032;2023-10-09T02:29:53;32.55;;;6.47;;
177;SDS011;77;48.792;9.032;2023-10-09T02:32:19;32.70;;;6.40;;
177;SDS011;77;48.792;9.032;2023-10-09T02:34:44;33.47;;;6.13;;
177;SDS011;77;48.792;9.032;2023-10-09T02:37:10;29.80;;;6.83;;
177;SDS011;77;48.792;9.032;2023-10-09T02:39:35;28.20;;;6.20;;
177;SDS011;77;48.792;9.032;2023-10-09T02:42:00;35.77;;;7.00;;
177;SDS011;77;48.792;9.032;2023-10-09T02:44:25;35.63;;;5.80;;
177;SDS011;77;48.792;9.032;2023-10-09T02:46:50;27.83;;;6.23;;
177;SDS011;77;48.792;9.032;2023-10-09T02:49:17;30.77;;;5.70;;
177;SDS011;77;48.792;9.032;2023-10-09T02:51:42;33.17;;;6.50;;
177;SDS011;77;48.792;9.032;2023-10-09T02:54:07;28.57;;;5.50;;
177;SDS011;77;48.792;9.032;2023-10-09T02:56:34;23.80;;;5.87;;
177;SDS011;77;48.792;9.032;2023-10-09T02:58:59;29.23;;;5.80;;
177;SDS011;77;48.792;9.032;2023-10-09T03:01:24;32.17;;;6.10;;
177;SDS011;77;48.792;9.032;2023-10-09T03:03:49;27.63;;;6.30;;
177;SDS011;77;48.792;9.032;2023-10-09T03:06:16;26.53;;;6.13;;
177;SDS011;77;48.792;9.032;2023-10-09T03:08:41;25.03;;;5.70;;
177;SDS011;77;48.792;9.032;2023-10-09T03:11:07;20.20;;;5.77;;
177;SDS011;77;48.792;9.032;2023-10-09T03:13:32;28.20;;;6.80;;
177;SDS011;77;48.792;9.032;2023-10-09T03:15:57;32.13;;;5.97;;
177;SDS011;77;48.792;9.032;2023-10-09T03:18:23;24.53;;;5.70;;
177;SDS011;77;48.792;9.032;2023-10-09T03:20:48;36.17;;;6.23;;
177;SDS011;77;48.792;9.032;2023-10-09T03:23:14;27.20;;;6.30;;
177;SDS011;77;48.792;9.032;2023-10-09T03:25:40;25.40;;;5.30;;
177;SDS011;77;48.792;9.032;2023-10-09T03:28:05;26.80;;;5.53;;
177;SDS011;77;48.792;9.032;2023-10-09T03:30:30;23.20;;;5.73;;
177;SDS011;77;48.792;9.032;2023-10-09T03:32:55;32.43;;;5.60;;
177;SDS011;77;48.792;9.032;2023-10-09T03:35:21;23.00;;;5.47;;
177;SDS011;77;48.792;9.032;2023-10-09T03:37:46;24.93;;;5.37;;
177;SDS011;77;48.792;9.032;2023-10-09T03:40:13;19.47;;;5.60;;
177;SDS011;77;48.792;9.032;2023-10-09T03:42:38;24.97;;;5.53;;
177;SDS011;77;48.792;9.032;2023-10-09T03:45:03;22.73;;;5.30;;
177;SDS011;77;48.792;9.032;2023-10-09T03:47:29;30.60;;;6.27;;
177;SDS011;77;48.792;9.032;2023-10-09T03:49:54;22.07;;;6.00;;
177;SDS011;77;48.792;9.032;2023-10-09T03:52:19;33.40;;;6.10;;
177;SDS011;77;48.792;9.032;2023-10-09T03:54:44;25.57;;;5.63;;
177;SDS011;77;48.792;9.032;2023-10-09T03:57:11;28.33;;;5.57;;
177;SDS011;77;48.792;9.032;2023-10-09T03:59:36;20.70;;;5.23;;
177;SDS011;77;48.792;9.032;2023-10-09T04:02:01;24.93;;;5.70;;
177;SDS011;77;48.792;9.032;2023-10-09T04:04:26;27.03;;;5.73;;
177;SDS011;77;48.792;9.032;2023-10-09T04:06:51;25.57;;;6.00;;
177;SDS011;77;48.792;9.032;2023-10-09T04:09:16;22.77;;;6.30;;
177;SDS011;77;48.792;9.032;2023-10-09T04:11:42;26.23;;;6.27;;
177;SDS011;77;48.792;9.032;2023-10-09T04:14:08;37.40;;;6.23;;
177;SDS011;77;48.792;9.032;2023-10-09T04:16:33;19.50;;;5.20;;
177;SDS011;77;48.792;9.032;2023-10-09T04:18:59;22.70;;;5.70;;
177;SDS011;77;48.792;9.032;2023-10-09T04:21:24;22.83;;;5.20;;
177;SDS011;77;48.792;9.032;2023-10-09T04:23:49;25.83;;;5.80;;
177;SDS011;77;48.792;9.032;2023-10-09T04:26:15;27.40;;;5.53;;
177;SDS011;77;48.792;9.032;2023-10-09T04:28:40;22.90;;;5.53;;
177;SDS011;77;48.792;9.032;2023-10-09T04:31:06;19.77;;;5.67;;
177;SDS011;77;48.792;9.032;2023-10-09T04:33:31;28.93;;;5.50;;
177;SDS011;77;48.792;9.032;2023-10-09T04:36:00;22.13;;;5.73;;
177;SDS011;77;48.792;9.032;2023-10-09T04:38:26;25.90;;;6.40;;
177;SDS011;77;48.792;9.032;2023-10-09T04:40:51;21.47;;;5.30;;
177;SDS011;77;48.792;9.032;2023-10-09T04:43:16;22.00;;;5.93;;
177;SDS011;77;48.792;9.032;2023-10-09T04:45:41;22.90;;;5.57;;
177;SDS011;77;48.792;9.032;2023-10-09T04:48:08;25.13;;;5.57;;
177;SDS011;77;48.792;9.032;2023-10-09T04:50:33;17.53;;;4.93;;
177;SDS011;77;48.792;9.032;2023-10-09T04:52:58;27.47;;;5.50;;
177;SDS011;77;48.792;9.032;2023-10-09T04:55:23;27.87;;;5.50;;
177;SDS011;77;48.792;9.032;2023-10-09T04:57:48;22.20;;;5.77;;
177;SDS011;77;48.792;9.032;2023-10-09T05:00:14;20.33;;;5.20;;
177;SDS011;77;48.792;9.032;2023-10-09T05:02:39;27.63;;;5.80;;
177;SDS011;77;48.792;9.032;2023-10-09T05:05:06;27.42;;;5.22;;
177;SDS011;77;48.792;9.032;2023-10-09T05:07:31;22.87;;;5.43;;
177;SDS011;77;48.792;9.032;2023-10-09T05:09:56;24.03;;;5.20;;
177;SDS011;77;48.792;9.032;2023-10-09T05:12:22;21.80;;;5.47;;
177;SDS011;77;48.792;9.032;2023-10-09T05:14:47;29.90;;;5.93;;
177;SDS011;77;48.792;9.032;2023-10-09T05:17:12;22.80;;;5.53;;
177;SDS011;77;48.792;9.032;2023-10-09T05:19:37;25.50;;;5.67;;
177;SDS011;77;48.792;9.032;2023-10-09T05:22:04;22.63;;;5.90;;
177;SDS011;77;48.792;9.032;2023-10-09T05:24:29;21.30;;;5.30;;
177;SDS011;77;48.792;9.032;2023-10-09T05:26:54;26.17;;;5.63;;
177;SDS011;77;48.792;9.032;2023-10-09T05:29:20;24.07;;;5.30;;
177;SDS011;77;48.792;9.032;2023-10-09T05:31:45;21.30;;;5.63;;
177;SDS011;77;48.792;9.032;2023-10-09T05:34:11;18.00;;;5.20;;
177;SDS011;77;48.792;9.032;2023-10-09T05:36:36;37.77;;;6.20;;
177;SDS011;77;48.792;9.032;2023-10-09T05:39:03;23.17;;;5.30;;
177;SDS011;77;48.792;9.032;2023-10-09T05:41:28;20.03;;;5.37;;
177;SDS011;77;48.792;9.032;2023-10-09T05:43:53;21.70;;;5.50;;
177;SDS011;77;48.792;9.032;2023-10-09T05:46:18;22.67;;;5.23;;
177;SDS011;77;48.792;9.032;2023-10-09T05:48:43;24.37;;;5.43;;
177;SDS011;77;48.792;9.032;2023-10-09T05:51:08;26.83;;;5.20;;
177;SDS011;77;48.792;9.032;2023-10-09T05:53:33;23.90;;;5.50;;
177;SDS011;77;48.792;9.032;2023-10-09T05:56:00;28.80;;;5.20;;
177;SDS011;77;48.792;9.032;2023-10-09T05:58:25;23.03;;;5.03;;
177;SDS011;77;48.792;9.032;2023-10-09T06:00:50;25.17;;;6.03;;
177;SDS011;77;48.792;9.032;2023-10-09T06:03:15;28.13;;;5.90;;
177;SDS011;77;48.792;9.032;2023-10-09T06:05:41;25.80;;;5.40;;
177;SDS011;77;48.792;9.032;2023-10-09T06:08:06;29.97;;;5.50;;
177;SDS011;77;48.792;9.032;2023-10-09T06:10:31;23.50;;;5.53;;
177;SDS011;77;48.792;9.032;2023-10-09T06:12:57;18.33;;;5.03;;
177;SDS011;77;48.792;9.032;2023-10-09T06:15:23;18.90;;;5.00;;
177;SDS011;77;48.792;9.032;2023-10-09T06:17:48;20.03;;;4.83;;
177;SDS011;77;48.792;9.032;2023-10-09T06:20:13;25.23;;;5.20;;
177;SDS011;77;48.792;9.032;2023-10-09T06:22:38;21.00;;;4.93;;
177;SDS011;77;48.792;9.032;2023-10-09T06:25:04;34.63;;;6.43;;
177;SDS011;77;48.792;9.032;2023-10-09T06:27:29;18.37;;;4.73;;
177;SDS011;77;48.792;9.032;2023-10-09T06:29:56;20.40;;;5.13;;
177;SDS011;77;48.792;9.032;2023-10-09T06:32:21;27.60;;;5.00;;
177;SDS011;77;48.792;9.032;2023-10-09T06:34:47;20.23;;;5.30;;
177;SDS011;77;48.792;9.032;2023-10-09T06:37:12;19.40;;;5.30;;
177;SDS011;77;48.792;9.032;2023-10-09T06:39:37;23.37;;;5.00;;
177;SDS011;77;48.792;9.032;2023-10-09T06:42:03;27.60;;;5.97;;
177;SDS011;77;48.792;9.032;2023-10-09T06:44:28;24.43;;;4.80;;
177;SDS011;77;48.792;9.032;2023-10-09T06:46:54;18.00;;;5.10;;
177;SDS011;77;48.792;9.032;2023-10-09T06:49:20;25.83;;;5.60;;
177;SDS011;77;48.792;9.032;2023-10-09T06:51:45;21.77;;;5.13;;
177;SDS011;77;48.792;9.032;2023-10-09T06:54:10;26.73;;;5.93;;
177;SDS011;77;48.792;9.032;2023-10-09T06:56:35;22.33;;;5.57;;
177;SDS011;77;48.792;9.032;2023-10-09T06:59:01;31.27;;;5.17;;
177;SDS011;77;48.792;9.032;2023-10-09T07:01:26;21.83;;;5.10;;
177;SDS011;77;48.792;9.032;2023-10-09T07:03:53;25.27;;;5.70;;
177;SDS011;77;48.792;9.032;2023-10-09T07:06:18;21.00;;;5.23;;
177;SDS011;77;48.792;9.032;2023-10-09T07:08:44;22.87;;;5.30;;
177;SDS011;77;48.792;9.032;2023-10-09T07:11:09;23.90;;;5.07;;
177;SDS011;77;48.792;9.032;2023-10-09T07:13:34;26.00;;;4.67;;
177;SDS011;77;48.792;9.032;2023-10-09T07:15:59;20.63;;;5.40;;
177;SDS011;77;48.792;9.032;2023-10-09T07:18:24;30.90;;;5.50;;
177;SDS011;77;48.792;9.032;2023-10-09T07:20:51;27.83;;;5.90;;
177;SDS011;77;48.792;9.032;2023-10-09T07:23:16;21.03;;;5.30;;
177;SDS011;77;48.792;9.032;2023-10-09T07:25:41;22.00;;;5.50;;
177;SDS011;77;48.792;9.032;2023-10-09T07:28:07;23.93;;;4.80;;
177;SDS011;77;48.792;9.032;2023-10-09T07:30:32;22.43;;;5.33;;
177;SDS011;77;48.792;9.032;2023-10-09T07:32:58;22.10;;;5.13;;
177;SDS011;77;48.792;9.032;2023-10-09T07:35:23;30.33;;;5.30;;
177;SDS011;77;48.792;9.032;2023-10-09T07:37:50;29.83;;;6.10;;
177;SDS011;77;48.792;9.032;2023-10-09T07:40:15;26.03;;;5.60;;
177;SDS011;77;48.792;9.032;2023-10-09T07:42:40;26.93;;;5.50;;
177;SDS011;77;48.792;9.032;2023-10-09T07:45:06;26.90;;;5.40;;
177;SDS011;77;48.792;9.032;2023-10-09T07:47:31;22.67;;;5.20;;
177;SDS011;77;48.792;9.032;2023-10-09T07:49:56;26.37;;;5.23;;
177;SDS011;77;48.792;9.032;2023-10-09T07:52:21;20.30;;;5.20;;
177;SDS011;77;48.792;9.032;2023-10-09T07:54:48;25.83;;;5.57;;
177;SDS011;77;48.792;9.032;2023-10-09T07:57:13;19.90;;;4.80;;
177;SDS011;77;48.792;9.032;2023-10-09T07:59:39;23.13;;;5.23;;
177;SDS011;77;48.792;9.032;2023-10-09T08:02:04;33.07;;;6.30;;
177;SDS011;77;48.792;9.032;2023-10-09T08:04:29;28.50;;;5.67;;
177;SDS011;77;48.792;9.032;2023-10-09T08:06:54;29.77;;;5.20;;
177;SDS011;77;48.792;9.032;2023-10-09T08:09:19;20.20;;;4.93;;
177;SDS011;77;48.792;9.032;2023-10-09T08:11:47;23.57;;;5.20;;
177;SDS011;77;48.792;9.032;2023-10-09T08:14:13;36.23;;;5.97;;
177;SDS011;77;48.792;9.032;2023-10-09T08:16:38;20.37;;;5.20;;
177;SDS011;77;48.792;9.032;2023-10-09T08:19:03;20.90;;;5.33;;
177;SDS011;77;48.792;9.032;2023-10-09T08:21:28;18.87;;;5.03;;
177;SDS011;77;48.792;9.032;2023-10-09T08:23:54;27.47;;;5.37;;
177;SDS011;77;48.792;9.032;2023-10-09T08:26:19;27.60;;;5.40;;
177;SDS011;77;48.792;9.032;2023-10-09T08:28:45;21.73;;;5.10;;
177;SDS011;77;48.792;9.032;2023-10-09T08:31:11;29.00;;;5.83;;
177;SDS011;77;48.792;9.032;2023-10-09T08:33:36;32.07;;;5.90;;
177;SDS011;77;48.792;9.032;2023-10-09T08:36:01;35.20;;;5.60;;
177;SDS011;77;48.792;9.032;2023-10-09T08:38:26;23.90;;;4.93;;
177;SDS011;77;48.792;9.032;2023-10-09T08:40:51;22.90;;;5.03;;
177;SDS011;77;48.792;9.032;2023-10-09T08:43:17;22.40;;;4.60;;
177;SDS011;77;48.792;9.032;2023-10-09T08:45:45;26.53;;;6.33;;
177;SDS011;77;48.792;9.032;2023-10-09T08:48:11;24.13;;;5.90;;
177;SDS011;77;48.792;9.032;2023-10-09T08:50:36;35.73;;;6.30;;
177;SDS011;77;48.792;9.032;2023-10-09T08:53:02;25.77;;;6.10;;
177;SDS011;77;48.792;9.032;2023-10-09T08:55:27;33.50;;;6.00;;
177;SDS011;77;48.792;9.032;2023-10-09T08:57:52;35.53;;;5.40;;
177;SDS011;77;48.792;9.032;2023-10-09T09:00:18;35.63;;;5.80;;
177;SDS011;77;48.792;9.032;2023-10-09T09:02:44;30.00;;;5.03;;
177;SDS011;77;48.792;9.032;2023-10-09T09:05:16;20.50;;;5.50;;
177;SDS011;77;48.792;9.032;2023-10-09T09:07:41;34.63;;;6.60;;
177;SDS011;77;48.792;9.032;2023-10-09T09:10:06;30.20;;;5.90;;
177;SDS011;77;48.792;9.032;2023-10-09T09:12:32;27.93;;;5.77;;
177;SDS011;77;48.792;9.032;2023-10-09T09:14:57;25.63;;;5.50;;
177;SDS011;77;48.792;9.032;2023-10-09T09:17:22;34.13;;;5.50;;
177;SDS011;77;48.792;9.032;2023-10-09T09:19:49;29.03;;;5.60;;
177;SDS011;77;48.792;9.032;2023-10-09T09:22:14;22.13;;;4.90;;
177;SDS011;77;48.792;9.032;2023-10-09T09:24:39;32.40;;;5.67;;
177;SDS011;77;48.792;9.032;2023-10-09T09:27:05;29.80;;;6.40;;
177;SDS011;77;48.792;9.032;2023-10-09T09:29:38;25.07;;;5.53;;
177;SDS011;77;48.792;9.032;2023-10-09T09:32:04;32.93;;;6.27;;
177;SDS011;77;48.792;9.032;2023-10-09T09:34:29;28.83;;;6.10;;
177;SDS011;77;48.792;9.032;2023-10-09T09:36:56;28.37;;;5.53;;
177;SDS011;77;48.792;9.032;2023-10-09T09:39:22;22.30;;;5.90;;
177;SDS011;77;48.792;9.032;2023-10-09T09:41:47;36.63;;;5.00;;
177;SDS011;77;48.792;9.032;2023-10-09T09:44:13;25.80;;;6.07;;
177;SDS011;77;48.792;9.032;2023-10-09T09:46:38;28.17;;;5.70;;
177;SDS011;77;48.792;9.032;2023-10-09T09:49:04;35.67;;;6.03;;
177;SDS011;77;48.792;9.032;2023-10-09T09:51:29;35.17;;;6.10;;
177;SDS011;77;48.792;9.032;2023-10-09T09:53:56;43.87;;;6.73;;
177;SDS011;77;48.792;9.032;2023-10-09T09:56:21;40.07;;;6.43;;
177;SDS011;77;48.792;9.032;2023-10-09T09:58:50;36.80;;;5.17;;
177;SDS011;77;48.792;9.032;2023-10-09T10:01:15;36.00;;;6.60;;
177;SDS011;77;48.792;9.032;2023-10-09T10:03:41;29.97;;;5.27;;
177;SDS011;77;48.792;9.032;2023-10-09T10:06:07;27.33;;;6.10;;
177;SDS011;77;48.792;9.032;2023-10-09T10:08:33;30.70;;;6.27;;
177;SDS011;77;48.792;9.032;2023-10-09T10:10:59;30.43;;;6.07;;
177;SDS011;77;48.792;9.032;2023-10-09T10:16:14;24.17;;;6.00;;
177;SDS011;77;48.792;9.032;2023-10-09T10:18:52;29.73;;;5.70;;
177;SDS011;77;48.792;9.032;2023-10-09T10:21:17;29.20;;;6.10;;
177;SDS011;77;48.792;9.032;2023-10-09T10:23:42;33.73;;;5.93;;
177;SDS011;77;48.792;9.032;2023-10-09T10:26:18;34.70;;;5.93;;
177;SDS011;77;48.792;9.032;2023-10-09T10:28:44;31.73;;;5.57;;
177;SDS011;77;48.792;9.032;2023-10-09T10:31:09;31.70;;;5.90;;
177;SDS011;77;48.792;9.032;2023-10-09T10:36:18;36.40;;;6.17;;
177;SDS011;77;48.792;9.032;2023-10-09T10:38:43;32.53;;;5.73;;
177;SDS011;77;48.792;9.032;2023-10-09T10:41:09;24.53;;;5.40;;
177;SDS011;77;48.792;9.032;2023-10-09T10:43:36;32.97;;;6.10;;
177;SDS011;77;48.792;9.032;2023-10-09T10:46:01;30.10;;;5.63;;
177;SDS011;77;48.792;9.032;2023-10-09T10:48:26;31.10;;;5.90;;
177;SDS011;77;48.792;9.032;2023-10-09T10:50:55;29.00;;;6.00;;
177;SDS011;77;48.792;9.032;2023-10-09T10:53:21;32.37;;;5.43;;
177;SDS011;77;48.792;9.032;2023-10-09T10:55:57;23.83;;;5.73;;
177;SDS011;77;48.792;9.032;2023-10-09T10:58:22;29.30;;;5.30;;
177;SDS011;77;48.792;9.032;2023-10-09T11:00:52;15.63;;;4.67;;
177;SDS011;77;48.792;9.032;2023-10-09T11:03:18;16.30;;;5.00;;
177;SDS011;77;48.792;9.032;2023-10-09T11:05:43;23.23;;;4.90;;
177;SDS011;77;48.792;9.032;2023-10-09T11:08:09;17.53;;;4.93;;
177;SDS011;77;48.792;9.032;2023-10-09T11:10:34;13.50;;;4.50;;
177;SDS011;77;48.792;9.032;2023-10-09T11:12:59;14.37;;;4.70;;
177;SDS011;77;48.792;9.032;2023-10-09T11:15:30;15.80;;;4.93;;
177;SDS011;77;48.792;9.032;2023-10-09T11:18:00;15.17;;;4.20;;
177;SDS011;77;48.792;9.032;2023-10-09T11:20:25;21.87;;;4.77;;
177;SDS011;77;48.792;9.032;2023-10-09T11:22:50;12.20;;;4.40;;
177;SDS011;77;48.792;9.032;2023-10-09T11:25:16;16.90;;;5.00;;
177;SDS011;77;48.792;9.032;2023-10-09T11:27:41;14.27;;;4.10;;
177;SDS011;77;48.792;9.032;2023-10-09T11:30:07;15.30;;;4.73;;
177;SDS011;77;48.792;9.032;2023-10-09T11:32:32;16.53;;;5.00;;
177;SDS011;77;48.792;9.032;2023-10-09T11:35:12;22.30;;;4.87;;
177;SDS011;77;48.792;9.032;2023-10-09T11:37:37;15.37;;;4.80;;
177;SDS011;77;48.792;9.032;2023-10-09T11:40:03;17.40;;;4.50;;
177;SDS011;77;48.792;9.032;2023-10-09T11:42:28;12.50;;;5.20;;
177;SDS011;77;48.792;9.032;2023-10-09T11:44:53;18.80;;;5.20;;
177;SDS011;77;48.792;9.032;2023-10-09T11:47:19;18.90;;;5.90;;
177;SDS011;77;48.792;9.032;2023-10-09T11:49:46;21.33;;;5.70;;
177;SDS011;77;48.792;9.032;2023-10-09T11:52:13;14.90;;;5.33;;
177;SDS011;77;48.792;9.032;2023-10-09T11:54:38;14.37;;;5.00;;
177;SDS011;77;48.792;9.032;2023-10-09T11:57:03;20.48;;;5.45;;
177;SDS011;77;48.792;9.032;2023-10-09T11:59:29;21.33;;;5.67;;
177;SDS011;77;48.792;9.032;2023-10-09T12:01:54;14.90;;;4.20;;
177;SDS011;77;48.792;9.032;2023-10-09T12:04:19;28.23;;;6.17;;
177;SDS011;77;48.792;9.032;2023-10-09T12:06:44;14.10;;;4.83;;
177;SDS011;77;48.792;9.032;2023-10-09T12:09:11;21.80;;;5.80;;
177;SDS011;77;48.792;9.032;2023-10-09T12:11:36;15.37;;;5.90;;
177;SDS011;77;48.792;9.032;2023-10-09T12:14:01;23.97;;;6.27;;
177;SDS011;77;48.792;9.032;2023-10-09T12:16:26;19.73;;;6.10;;
177;SDS011;77;48.792;9.032;2023-10-09T12:18:51;17.17;;;5.83;;
177;SDS011;77;48.792;9.032;2023-10-09T12:21:17;20.23;;;5.93;;
177;SDS011;77;48.792;9.032;2023-10-09T12:23:42;16.30;;;6.07;;
177;SDS011;77;48.792;9.032;2023-10-09T12:26:08;19.73;;;5.67;;
177;SDS011;77;48.792;9.032;2023-10-09T12:28:33;17.80;;;5.90;;
177;SDS011;77;48.792;9.032;2023-10-09T12:30:59;22.60;;;6.20;;
177;SDS011;77;48.792;9.032;2023-10-09T12:33:24;20.20;;;5.80;;
177;SDS011;77;48.792;9.032;2023-10-09T12:35:49;14.30;;;5.67;;
177;SDS011;77;48.792;9.032;2023-10-09T12:38:14;15.87;;;5.23;;
177;SDS011;77;48.792;9.032;2023-10-09T12:40:39;16.77;;;5.57;;
177;SDS011;77;48.792;9.032;2023-10-09T12:43:06;18.10;;;5.50;;
177;SDS011;77;48.792;9.032;2023-10-09T12:45:33;15.63;;;5.83;;
177;SDS011;77;48.792;9.032;2023-10-09T12:47:58;18.47;;;5.63;;
177;SDS011;77;48.792;9.032;2023-10-09T12:50:24;19.73;;;5.50;;
177;SDS011;77;48.792;9.032;2023-10-09T12:52:49;25.13;;;6.47;;
177;SDS011;77;48.792;9.032;2023-10-09T12:55:14;11.07;;;4.80;;
177;SDS011;77;48.792;9.032;2023-10-09T12:57:39;16.60;;;5.33;;
177;SDS011;77;48.792;9.032;2023-10-09T13:00:07;13.50;;;5.23;;
177;SDS011;77;48.792;9.032;2023-10-09T13:02:32;13.97;;;5.50;;
177;SDS011;77;48.792;9.032;2023-10-09T13:04:57;14.37;;;6.10;;
177;SDS011;77;48.792;9.032;2023-10-09T13:07:22;11.77;;;4.30;;
177;SDS011;77;48.792;9.032;2023-10-09T13:09:48;18.30;;;6.07;;
177;SDS011;77;48.792;9.032;2023-10-09T13:12:13;14.27;;;6.10;;
177;SDS011;77;48.792;9.032;2023-10-09T13:14:38;14.97;;;6.43;;
177;SDS011;77;48.792;9.032;2023-10-09T13:17:05;14.30;;;6.70;;
177;SDS011;77;48.792;9.032;2023-10-09T13:19:30;14.37;;;6.67;;
177;SDS011;77;48.792;9.032;2023-10-09T13:21:55;18.50;;;7.73;;
177;SDS011;77;48.792;9.032;2023-10-09T13:24:20;17.73;;;7.87;;
177;SDS011;77;48.792;9.032;2023-10-09T13:26:45;18.30;;;7.93;;
177;SDS011;77;48.792;9.032;2023-10-09T13:29:10;17.93;;;8.43;;
177;SDS011;77;48.792;9.032;2023-10-09T13:31:36;16.07;;;7.63;;
177;SDS011;77;48.792;9.032;2023-10-09T13:34:02;17.50;;;7.13;;
177;SDS011;77;48.792;9.032;2023-10-09T13:36:28;20.33;;;7.63;;
177;SDS011;77;48.792;9.032;2023-10-09T13:38:53;20.77;;;8.10;;
177;SDS011;77;48.792;9.032;2023-10-09T13:41:18;19.20;;;7.40;;
177;SDS011;77;48.792;9.032;2023-10-09T13:43:43;21.03;;;6.97;;
177;SDS011;77;48.792;9.032;2023-10-09T13:46:09;17.33;;;6.90;;
177;SDS011;77;48.792;9.032;2023-10-09T13:48:34;16.23;;;7.07;;
177;SDS011;77;48.792;9.032;2023-10-09T13:51:01;20.20;;;6.50;;
177;SDS011;77;48.792;9.032;2023-10-09T13:53:26;14.53;;;6.40;;
177;SDS011;77;48.792;9.032;2023-10-09T13:55:51;19.70;;;6.37;;
177;SDS011;77;48.792;9.032;2023-10-09T13:58:16;21.20;;;6.40;;
177;SDS011;77;48.792;9.032;2023-10-09T14:00:41;18.43;;;6.10;;
177;SDS011;77;48.792;9.032;2023-10-09T14:03:06;14.63;;;6.37;;
177;SDS011;77;48.792;9.032;2023-10-09T14:05:31;17.00;;;6.70;;
177;SDS011;77;48.792;9.032;2023-10-09T14:07:58;17.03;;;6.47;;
177;SDS011;77;48.792;9.032;2023-10-09T14:10:23;17.73;;;7.03;;
177;SDS011;77;48.792;9.032;2023-10-09T14:12:48;15.80;;;6.97;;
177;SDS011;77;48.792;9.032;2023-10-09T14:15:14;20.00;;;6.53;;
177;SDS011;77;48.792;9.032;2023-10-09T14:17:39;17.77;;;7.10;;
177;SDS011;77;48.792;9.032;2023-10-09T14:20:04;21.45;;;6.70;;
177;SDS011;77;48.792;9.032;2023-10-09T14:22:29;16.57;;;7.27;;
177;SDS011;77;48.792;9.032;2023-10-09T14:24:56;15.10;;;7.07;;
177;SDS011;77;48.792;9.032;2023-10-09T14:27:22;17.93;;;7.27;;
177;SDS011;77;48.792;9.032;2023-10-09T14:29:47;22.60;;;6.63;;
177;SDS011;77;48.792;9.032;2023-10-09T14:32:13;17.40;;;6.90;;
177;SDS011;77;48.792;9.032;2023-10-09T14:34:38;20.67;;;6.33;;
177;SDS011;77;48.792;9.032;2023-10-09T14:37:03;17.50;;;6.83;;
177;SDS011;77;48.792;9.032;2023-10-09T14:39:29;18.27;;;6.90;;
177;SDS011;77;48.792;9.032;2023-10-09T14:41:55;19.80;;;7.37;;
177;SDS011;77;48.792;9.032;2023-10-09T14:44:20;13.73;;;6.20;;
177;SDS011;77;48.792;9.032;2023-10-09T14:46:45;14.63;;;6.03;;
177;SDS011;77;48.792;9.032;2023-10-09T14:49:11;20.10;;;6.53;;
177;SDS011;77;48.792;9.032;2023-10-09T14:51:36;17.00;;;6.93;;
177;SDS011;77;48.792;9.032;2023-10-09T14:54:01;16.10;;;6.43;;
177;SDS011;77;48.792;9.032;2023-10-09T14:56:26;15.60;;;6.40;;
177;SDS011;77;48.792;9.032;2023-10-09T14:58:53;13.70;;;6.10;;
177;SDS011;77;48.792;9.032;2023-10-09T15:01:18;15.53;;;6.43;;
177;SDS011;77;48.792;9.032;2023-10-09T15:03:43;16.60;;;6.80;;
177;SDS011;77;48.792;9.032;2023-10-09T15:06:08;16.53;;;6.17;;
177;SDS011;77;48.792;9.032;2023-10-09T15:08:34;14.43;;;5.60;;
177;SDS011;77;48.792;9.032;2023-10-09T15:10:59;18.03;;;6.43;;
177;SDS011;77;48.792;9.032;2023-10-09T15:13:24;19.40;;;6.10;;
177;SDS011;77;48.792;9.032;2023-10-09T15:15:51;22.23;;;6.80;;
177;SDS011;77;48.792;9.032;2023-10-09T15:18:16;19.87;;;5.80;;
177;SDS011;77;48.792;9.032;2023-10-09T15:20:41;13.90;;;6.77;;
177;SDS011;77;48.792;9.032;2023-10-09T15:23:06;19.52;;;7.40;;
177;SDS011;77;48.792;9.032;2023-10-09T15:25:32;16.60;;;6.40;;
177;SDS011;77;48.792;9.032;2023-10-09T15:27:57;22.27;;;7.20;;
177;SDS011;77;48.792;9.032;2023-10-09T15:30:22;18.80;;;6.83;;
177;SDS011;77;48.792;9.032;2023-10-09T15:32:49;18.73;;;7.10;;
177;SDS011;77;48.792;9.032;2023-10-09T15:35:14;22.47;;;6.73;;
177;SDS011;77;48.792;9.032;2023-10-09T15:37:39;16.60;;;6.37;;
177;SDS011;77;48.792;9.032;2023-10-09T15:40:04;20.33;;;6.80;;